createdAt,value
2019-05-23T00:02:27.795Z,14.83
2019-05-23T00:05:06.995Z,14.70
2019-05-23T00:07:35.578Z,13.13
2019-05-23T00:10:05.964Z,12.67
2019-05-23T00:12:57.245Z,13.73
2019-05-23T00:15:28.579Z,13.97
2019-05-23T00:17:56.630Z,15.87
2019-05-23T00:20:25.123Z,14.27
2019-05-23T00:22:52.704Z,13.50
2019-05-23T00:25:21.745Z,13.20
2019-05-23T00:27:49.427Z,13.40
2019-05-23T00:30:24.031Z,16.03
2019-05-23T00:32:53.721Z,13.10
2019-05-23T00:35:23.323Z,13.60
2019-05-23T00:37:51.346Z,13.17
2019-05-23T00:40:19.113Z,17.97
2019-05-23T00:42:46.237Z,13.20
2019-05-23T00:45:15.126Z,13.70
2019-05-23T00:47:42.558Z,13.60
2019-05-23T00:50:11.400Z,12.97
2019-05-23T00:52:39.678Z,15.23
2019-05-23T00:55:09.932Z,17.47
2019-05-23T00:57:39.485Z,12.17
2019-05-23T01:00:08.900Z,18.60
2019-05-23T01:02:36.352Z,13.00
2019-05-23T01:05:04.040Z,20.60
2019-05-23T01:07:31.681Z,16.73
2019-05-23T01:09:59.012Z,16.60
2019-05-23T01:12:27.128Z,13.17
2019-05-23T01:14:55.205Z,14.07
2019-05-23T01:17:25.004Z,16.90
2019-05-23T01:19:53.795Z,15.40
2019-05-23T01:22:21.838Z,15.50
2019-05-23T01:24:51.970Z,16.70
2019-05-23T01:27:23.034Z,15.53
2019-05-23T01:29:51.985Z,15.63
2019-05-23T01:32:26.669Z,15.70
2019-05-23T01:34:54.993Z,17.30
2019-05-23T01:37:22.409Z,17.33
2019-05-23T01:39:50.204Z,16.70
2019-05-23T01:42:17.955Z,15.50
2019-05-23T01:44:46.944Z,17.67
2019-05-23T01:47:15.097Z,16.30
2019-05-23T01:49:43.735Z,17.50
2019-05-23T01:52:11.684Z,15.20
2019-05-23T01:54:39.969Z,15.17
2019-05-23T01:57:07.652Z,15.93
2019-05-23T01:59:35.441Z,18.20
2019-05-23T02:02:04.708Z,15.53
2019-05-23T02:04:32.155Z,15.27
2019-05-23T02:07:00.162Z,13.70
2019-05-23T02:09:27.606Z,15.10
2019-05-23T02:11:54.991Z,14.23
2019-05-23T02:14:22.708Z,13.80
2019-05-23T02:16:51.076Z,16.90
2019-05-23T02:19:18.951Z,14.97
2019-05-23T02:21:46.453Z,16.20
2019-05-23T02:24:14.404Z,12.97
2019-05-23T02:26:42.857Z,17.27
2019-05-23T02:29:11.198Z,17.50
2019-05-23T02:31:40.165Z,16.50
2019-05-23T02:34:08.101Z,14.50
2019-05-23T02:36:37.016Z,16.27
2019-05-23T02:39:18.449Z,16.77
2019-05-23T02:41:59.364Z,14.67
2019-05-23T02:44:28.829Z,15.60
2019-05-23T02:47:12.017Z,15.63
2019-05-23T02:49:40.369Z,18.40
2019-05-23T02:52:22.930Z,18.30
2019-05-23T02:54:52.225Z,15.93
2019-05-23T02:57:21.499Z,17.03
2019-05-23T02:59:52.657Z,16.47
2019-05-23T03:02:56.208Z,16.73
2019-05-23T03:05:25.952Z,16.53
2019-05-23T03:07:53.718Z,17.40
2019-05-23T03:10:24.007Z,18.30
2019-05-23T03:12:52.526Z,16.67
2019-05-23T03:15:21.438Z,17.23
2019-05-23T03:17:51.941Z,19.67
2019-05-23T03:20:21.104Z,18.57
2019-05-23T03:22:54.226Z,20.93
2019-05-23T03:26:19.225Z,17.90
2019-05-23T03:28:48.183Z,16.83
2019-05-23T03:31:30.912Z,13.70
2019-05-23T03:33:54.397Z,22.00
2019-05-23T03:36:22.871Z,19.93
2019-05-23T03:38:51.362Z,22.63
2019-05-23T03:41:19.521Z,20.93
2019-05-23T03:43:48.373Z,19.83
2019-05-23T03:46:19.221Z,21.50
2019-05-23T03:48:47.008Z,19.53
2019-05-23T03:51:16.715Z,18.80
2019-05-23T03:53:46.902Z,22.93
2019-05-23T03:56:15.545Z,20.40
2019-05-23T03:58:44.812Z,18.47
2019-05-23T04:01:12.897Z,21.80
2019-05-23T04:03:41.989Z,17.40
2019-05-23T04:06:09.993Z,19.23
2019-05-23T04:08:37.184Z,18.53
2019-05-23T04:11:04.348Z,22.13
2019-05-23T04:13:32.390Z,20.80
2019-05-23T04:16:00.171Z,20.07
2019-05-23T04:18:28.155Z,21.17
2019-05-23T04:20:56.522Z,19.87
2019-05-23T04:23:23.534Z,19.60
2019-05-23T04:25:51.058Z,19.73
2019-05-23T04:28:18.385Z,18.70
2019-05-23T04:30:45.790Z,22.77
2019-05-23T04:33:14.166Z,25.23
2019-05-23T04:35:41.324Z,27.87
2019-05-23T04:38:09.221Z,24.40
2019-05-23T04:40:36.394Z,29.67
2019-05-23T04:43:03.522Z,26.43
2019-05-23T04:45:33.448Z,22.63
2019-05-23T04:48:01.609Z,22.03
2019-05-23T04:50:29.213Z,27.73
2019-05-23T04:52:58.001Z,22.70
2019-05-23T04:55:25.334Z,21.90
2019-05-23T04:57:53.039Z,25.80
2019-05-23T05:00:20.638Z,21.40
2019-05-23T05:02:47.729Z,26.20
2019-05-23T05:05:14.955Z,22.97
2019-05-23T05:07:42.685Z,25.13
2019-05-23T05:10:12.167Z,22.60
2019-05-23T05:12:40.013Z,21.30
2019-05-23T05:15:07.779Z,19.40
2019-05-23T05:17:36.200Z,19.93
2019-05-23T05:20:04.673Z,24.80
2019-05-23T05:22:31.753Z,22.00
2019-05-23T05:24:59.398Z,21.30
2019-05-23T05:27:27.855Z,20.70
2019-05-23T05:29:55.496Z,19.60
2019-05-23T05:32:23.739Z,21.00
2019-05-23T05:34:52.196Z,20.63
2019-05-23T05:37:19.859Z,19.97
2019-05-23T05:39:46.922Z,19.50
2019-05-23T05:42:13.972Z,21.50
2019-05-23T05:44:41.749Z,20.17
2019-05-23T05:47:09.656Z,21.03
2019-05-23T05:49:37.447Z,20.20
2019-05-23T05:52:06.835Z,22.20
2019-05-23T05:54:35.008Z,24.47
2019-05-23T05:57:03.019Z,20.70
2019-05-23T05:59:30.750Z,19.57
2019-05-23T06:01:57.929Z,21.53
2019-05-23T06:04:24.991Z,19.70
2019-05-23T06:07:18.532Z,25.23
2019-05-23T06:09:46.858Z,21.70
2019-05-23T06:12:14.701Z,19.83
2019-05-23T06:14:42.089Z,19.50
2019-05-23T06:17:11.894Z,20.87
2019-05-23T06:19:39.850Z,20.50
2019-05-23T06:22:08.883Z,21.20
2019-05-23T06:24:46.541Z,27.10
2019-05-23T06:27:09.646Z,22.30
2019-05-23T06:29:37.206Z,22.03
2019-05-23T06:32:07.010Z,22.70
2019-05-23T06:34:34.834Z,23.27
2019-05-23T06:37:03.050Z,26.13
2019-05-23T06:39:30.789Z,23.40
2019-05-23T06:41:58.278Z,19.97
2019-05-23T06:44:26.436Z,24.53
2019-05-23T06:46:53.918Z,24.33
2019-05-23T06:49:20.979Z,22.67
2019-05-23T06:51:48.672Z,25.00
2019-05-23T06:54:15.917Z,27.00
2019-05-23T06:56:43.547Z,22.77
2019-05-23T06:59:13.108Z,20.90
2019-05-23T07:01:40.333Z,26.73
2019-05-23T07:04:08.415Z,23.90
2019-05-23T07:06:35.750Z,25.47
2019-05-23T07:09:07.986Z,25.03
2019-05-23T07:11:35.731Z,23.70
2019-05-23T07:14:04.225Z,24.07
2019-05-23T07:16:32.280Z,23.30
2019-05-23T07:18:59.895Z,24.90
2019-05-23T07:21:27.667Z,23.20
2019-05-23T07:23:56.029Z,23.93
2019-05-23T07:26:24.169Z,20.63
2019-05-23T07:28:52.029Z,23.30
2019-05-23T07:31:19.560Z,28.80
2019-05-23T07:34:00.961Z,24.53
2019-05-23T07:36:16.424Z,25.60
2019-05-23T07:38:43.598Z,26.33
2019-05-23T07:41:10.716Z,25.13
2019-05-23T07:43:38.181Z,26.70
2019-05-23T07:46:05.313Z,29.90
2019-05-23T07:48:33.847Z,28.50
2019-05-23T07:51:03.064Z,27.40
2019-05-23T07:53:44.061Z,25.57
2019-05-23T07:56:12.084Z,32.30
2019-05-23T07:58:39.295Z,22.30
2019-05-23T08:01:08.448Z,25.50
2019-05-23T08:03:36.411Z,26.10
2019-05-23T08:06:04.392Z,34.90
2019-05-23T08:08:32.876Z,25.63
2019-05-23T08:11:00.991Z,23.77
2019-05-23T08:13:28.902Z,22.87
2019-05-23T08:15:56.494Z,26.13
2019-05-23T08:18:24.529Z,20.90
2019-05-23T08:20:51.542Z,20.60
2019-05-23T08:23:20.093Z,23.57
2019-05-23T08:25:47.735Z,18.70
2019-05-23T08:28:15.916Z,22.13
2019-05-23T08:30:44.287Z,19.40
2019-05-23T08:33:11.871Z,22.83
2019-05-23T08:35:39.321Z,21.53
2019-05-23T08:38:06.851Z,21.80
2019-05-23T08:40:34.572Z,22.07
2019-05-23T08:43:01.877Z,21.73
2019-05-23T08:45:29.633Z,25.67
2019-05-23T08:47:56.991Z,26.30
2019-05-23T08:50:24.459Z,23.27
2019-05-23T08:52:51.888Z,18.90
2019-05-23T08:55:21.258Z,23.90
2019-05-23T08:57:53.382Z,21.93
2019-05-23T09:00:21.622Z,21.20
2019-05-23T09:02:51.190Z,26.93
2019-05-23T09:20:09.461Z,24.90
2019-05-23T09:22:36.532Z,24.30
2019-05-23T09:25:04.321Z,25.00
2019-05-23T09:27:34.755Z,24.53
2019-05-23T09:30:02.096Z,22.50
2019-05-23T09:32:30.461Z,23.97
2019-05-23T09:34:58.296Z,22.83
2019-05-23T09:37:28.045Z,22.23
2019-05-23T09:39:55.561Z,23.90
2019-05-23T09:42:22.623Z,21.83
2019-05-23T09:44:50.164Z,20.27
2019-05-23T09:47:17.818Z,19.60
2019-05-23T09:49:53.646Z,17.90
2019-05-23T09:52:15.954Z,19.10
2019-05-23T09:54:43.465Z,19.13
2019-05-23T09:57:25.057Z,19.63
2019-05-23T09:59:56.783Z,19.13
2019-05-23T10:02:21.743Z,21.03
2019-05-23T10:04:49.693Z,20.30
2019-05-23T10:07:17.131Z,22.47
2019-05-23T10:09:44.838Z,16.80
2019-05-23T10:12:12.573Z,16.30
2019-05-23T10:14:44.984Z,14.63
2019-05-23T10:17:13.291Z,18.30
2019-05-23T10:19:40.302Z,13.47
2019-05-23T10:22:08.114Z,11.70
2019-05-23T10:24:36.000Z,12.37
2019-05-23T10:27:05.111Z,15.40
2019-05-23T10:29:32.584Z,13.57
2019-05-23T10:31:59.648Z,16.27
2019-05-23T10:34:28.350Z,15.70
2019-05-23T10:36:55.690Z,14.23
2019-05-23T10:39:23.110Z,16.80
2019-05-23T10:41:50.879Z,18.10
2019-05-23T10:44:18.061Z,16.87
2019-05-23T10:46:46.295Z,16.60
2019-05-23T10:49:14.153Z,15.33
2019-05-23T10:51:41.404Z,13.77
2019-05-23T10:54:08.651Z,13.93
2019-05-23T10:56:36.154Z,18.20
2019-05-23T10:59:03.918Z,12.73
2019-05-23T11:01:32.679Z,12.40
2019-05-23T11:04:00.593Z,11.50
2019-05-23T11:06:28.005Z,13.27
2019-05-23T11:08:55.800Z,11.53
2019-05-23T11:11:23.097Z,8.70
2019-05-23T11:13:51.005Z,9.50
2019-05-23T11:16:18.425Z,12.13
2019-05-23T11:18:46.533Z,9.53
2019-05-23T11:21:13.995Z,8.33
2019-05-23T11:23:45.782Z,8.23
2019-05-23T11:26:13.570Z,7.73
2019-05-23T11:28:41.745Z,14.83
2019-05-23T11:31:10.056Z,7.90
2019-05-23T11:33:37.766Z,8.83
2019-05-23T11:36:04.917Z,9.80
2019-05-23T11:38:32.727Z,8.60
2019-05-23T11:41:00.222Z,9.37
2019-05-23T11:43:28.032Z,9.57
2019-05-23T11:46:03.808Z,12.50
2019-05-23T11:48:31.865Z,10.70
2019-05-23T11:50:59.203Z,7.83
2019-05-23T11:53:27.153Z,11.30
2019-05-23T11:55:54.974Z,9.80
2019-05-23T11:58:22.276Z,13.60
2019-05-23T12:01:20.975Z,10.63
2019-05-23T12:03:48.632Z,8.03
2019-05-23T12:06:16.094Z,8.80
2019-05-23T12:08:43.849Z,11.63
2019-05-23T12:11:13.212Z,9.13
2019-05-23T12:13:40.228Z,10.37
2019-05-23T12:16:08.547Z,8.83
2019-05-23T12:18:36.314Z,9.50
2019-05-23T12:21:03.315Z,7.67
2019-05-23T12:23:30.953Z,5.30
2019-05-23T12:25:58.315Z,8.83
2019-05-23T12:28:25.618Z,6.90
2019-05-23T12:30:53.336Z,11.50
2019-05-23T12:33:20.756Z,8.43
2019-05-23T12:35:48.240Z,8.00
2019-05-23T12:38:16.487Z,8.57
2019-05-23T12:40:43.989Z,5.80
2019-05-23T12:43:11.302Z,5.30
2019-05-23T12:45:39.219Z,6.63
2019-05-23T12:48:12.910Z,8.10
2019-05-23T12:50:42.949Z,5.83
2019-05-23T12:53:11.766Z,7.20
2019-05-23T12:55:39.475Z,6.17
2019-05-23T12:58:06.982Z,7.13
2019-05-23T13:00:46.670Z,6.50
2019-05-23T13:03:15.229Z,6.70
2019-05-23T13:05:43.083Z,6.73
2019-05-23T13:08:10.230Z,6.57
2019-05-23T13:10:38.321Z,6.63
2019-05-23T13:13:05.780Z,7.47
2019-05-23T13:15:33.857Z,7.20
2019-05-23T13:18:01.653Z,7.87
2019-05-23T13:20:29.059Z,7.57
2019-05-23T13:22:56.458Z,10.53
2019-05-23T13:25:24.612Z,8.87
2019-05-23T13:27:52.758Z,8.83
2019-05-23T13:30:20.291Z,7.50
2019-05-23T13:32:47.722Z,10.77
2019-05-23T13:35:15.259Z,8.00
2019-05-23T13:37:52.924Z,9.70
2019-05-23T13:40:12.402Z,8.90
2019-05-23T13:42:40.398Z,8.57
2019-05-23T13:45:08.790Z,14.30
2019-05-23T13:47:36.357Z,9.47
2019-05-23T13:50:04.035Z,11.73
2019-05-23T13:52:32.082Z,10.57
2019-05-23T13:54:59.541Z,10.97
2019-05-23T13:57:26.750Z,9.23
2019-05-23T13:59:53.920Z,9.73
2019-05-23T14:02:21.803Z,10.27
2019-05-23T14:04:49.878Z,10.00
2019-05-23T14:07:18.354Z,8.17
2019-05-23T14:09:45.899Z,8.40
2019-05-23T14:12:21.961Z,9.00
2019-05-23T14:14:42.943Z,12.37
2019-05-23T14:17:20.326Z,7.43
2019-05-23T14:19:48.266Z,8.83
2019-05-23T14:22:16.241Z,12.13
2019-05-23T14:24:43.837Z,9.13
2019-05-23T14:27:18.476Z,12.07
2019-05-23T14:29:46.237Z,9.77
2019-05-23T14:32:25.634Z,12.60
2019-05-23T14:34:53.896Z,11.53
2019-05-23T14:37:26.704Z,10.53
2019-05-23T14:39:56.914Z,9.47
2019-05-23T14:42:52.923Z,13.77
2019-05-23T14:45:47.850Z,14.10
2019-05-23T14:48:33.167Z,9.87
2019-05-23T14:51:18.826Z,13.10
2019-05-23T14:53:50.601Z,12.37
2019-05-23T14:56:19.549Z,10.97
2019-05-23T14:58:47.482Z,8.23
2019-05-23T15:01:14.880Z,7.90
2019-05-23T15:03:42.903Z,11.10
2019-05-23T15:06:10.888Z,12.70
2019-05-23T15:08:50.337Z,11.93
2019-05-23T15:11:07.249Z,10.17
2019-05-23T15:13:34.713Z,11.77
2019-05-23T15:16:04.148Z,12.47
2019-05-23T15:18:31.556Z,9.97
2019-05-23T15:20:59.350Z,8.17
2019-05-23T15:23:26.771Z,8.97
2019-05-23T15:25:54.934Z,7.63
2019-05-23T15:28:22.666Z,10.10
2019-05-23T15:30:50.539Z,12.67
2019-05-23T15:33:19.166Z,9.03
2019-05-23T15:35:47.432Z,17.03
2019-05-23T15:38:15.400Z,10.60
2019-05-23T15:40:43.129Z,22.93
2019-05-23T15:43:10.458Z,11.70
2019-05-23T15:45:37.776Z,15.03
2019-05-23T15:48:05.330Z,16.57
2019-05-23T15:50:39.345Z,12.80
2019-05-23T15:53:27.042Z,17.07
2019-05-23T15:55:58.664Z,20.30
2019-05-23T15:58:32.449Z,11.13
2019-05-23T16:01:06.546Z,8.57
2019-05-23T16:03:45.219Z,7.70
2019-05-23T16:06:14.166Z,8.90
2019-05-23T16:08:41.597Z,6.40
2019-05-23T16:11:09.007Z,14.03
2019-05-23T16:13:36.473Z,10.63
2019-05-23T16:16:04.130Z,7.50
2019-05-23T16:18:33.207Z,6.87
2019-05-23T16:21:00.323Z,8.50
2019-05-23T16:23:27.886Z,7.80
2019-05-23T16:25:55.157Z,8.23
2019-05-23T16:28:22.910Z,8.23
2019-05-23T16:30:50.864Z,6.73
2019-05-23T16:33:18.637Z,11.10
2019-05-23T16:35:46.428Z,11.57
2019-05-23T16:38:14.500Z,8.70
2019-05-23T16:40:42.292Z,9.80
2019-05-23T16:43:09.433Z,12.40
2019-05-23T16:45:37.163Z,7.80
2019-05-23T16:48:04.977Z,15.93
2019-05-23T16:50:32.812Z,11.67
2019-05-23T16:53:00.412Z,11.37
2019-05-23T16:55:35.283Z,10.57
2019-05-23T16:58:07.884Z,11.87
2019-05-23T17:00:53.945Z,9.83
2019-05-23T17:03:40.985Z,12.40
2019-05-23T17:06:27.734Z,9.90
2019-05-23T17:09:17.208Z,8.97
2019-05-23T17:11:59.074Z,11.70
2019-05-23T17:14:34.512Z,11.37
2019-05-23T17:17:36.501Z,12.00
2019-05-23T17:19:57.583Z,13.33
2019-05-23T17:22:37.448Z,9.50
2019-05-23T17:25:23.354Z,12.30
2019-05-23T17:28:14.006Z,9.63
2019-05-23T17:30:52.779Z,10.73
2019-05-23T17:33:21.110Z,10.33
2019-05-23T17:35:49.027Z,11.50
2019-05-23T17:38:16.533Z,8.80
2019-05-23T17:40:44.261Z,12.30
2019-05-23T17:43:11.499Z,11.20
2019-05-23T17:45:39.229Z,15.10
2019-05-23T17:48:07.167Z,15.30
2019-05-23T17:50:35.133Z,12.53
2019-05-23T17:53:02.785Z,11.97
2019-05-23T17:55:30.622Z,16.87
2019-05-23T17:57:58.107Z,21.33
2019-05-23T18:00:29.540Z,17.10
2019-05-23T18:02:57.429Z,18.37
2019-05-23T18:05:26.287Z,21.93
2019-05-23T18:07:53.446Z,14.83
2019-05-23T18:10:21.115Z,15.83
2019-05-23T18:12:48.237Z,15.93
2019-05-23T18:15:16.188Z,13.67
2019-05-23T18:17:44.237Z,14.60
2019-05-23T18:20:12.489Z,16.13
2019-05-23T18:22:40.717Z,18.60
2019-05-23T18:25:10.616Z,15.43
2019-05-23T18:27:38.805Z,17.30
2019-05-23T18:30:09.533Z,17.20
2019-05-23T18:32:37.211Z,14.37
2019-05-23T18:35:06.725Z,15.53
2019-05-23T18:37:34.336Z,14.27
2019-05-23T18:40:02.755Z,15.60
2019-05-23T18:42:30.101Z,15.77
2019-05-23T18:44:57.993Z,15.33
2019-05-23T18:47:32.360Z,15.73
2019-05-23T18:49:59.989Z,30.93
2019-05-23T18:52:27.463Z,15.30
2019-05-23T18:54:54.732Z,17.10
2019-05-23T18:57:22.295Z,15.57
2019-05-23T18:59:50.621Z,15.27
2019-05-23T19:02:18.659Z,18.33
2019-05-23T19:04:47.056Z,15.50
2019-05-23T19:07:15.201Z,18.80
2019-05-23T19:09:43.388Z,14.70
2019-05-23T19:12:11.110Z,15.00
2019-05-23T19:14:38.259Z,21.83
2019-05-23T19:17:06.016Z,18.93
2019-05-23T19:19:33.628Z,17.67
2019-05-23T19:22:00.704Z,17.53
2019-05-23T19:24:28.604Z,18.53
2019-05-23T19:26:56.018Z,19.30
2019-05-23T19:29:23.705Z,23.03
2019-05-23T19:31:50.919Z,17.63
2019-05-23T19:34:18.527Z,17.13
2019-05-23T19:36:46.070Z,13.63
2019-05-23T19:39:14.735Z,14.63
2019-05-23T19:41:43.020Z,15.87
2019-05-23T19:44:10.263Z,15.17
2019-05-23T19:46:37.948Z,16.43
2019-05-23T19:49:06.220Z,16.83
2019-05-23T19:51:33.315Z,13.43
2019-05-23T19:54:00.745Z,11.33
2019-05-23T19:56:28.605Z,13.87
2019-05-23T19:58:56.340Z,17.90
2019-05-23T20:01:26.823Z,12.47
2019-05-23T20:03:54.439Z,13.63
2019-05-23T20:06:21.865Z,13.40
2019-05-23T20:08:49.021Z,10.03
2019-05-23T20:11:16.620Z,12.43
2019-05-23T20:13:43.715Z,13.57
2019-05-23T20:16:11.173Z,13.63
2019-05-23T20:18:39.371Z,13.60
2019-05-23T20:21:07.089Z,14.53
2019-05-23T20:23:34.828Z,13.10
2019-05-23T20:26:02.817Z,14.50
2019-05-23T20:28:30.225Z,9.90
2019-05-23T20:30:58.412Z,12.90
2019-05-23T20:33:26.381Z,14.60
2019-05-23T20:35:53.473Z,16.40
2019-05-23T20:38:21.189Z,12.10
2019-05-23T20:40:48.614Z,13.07
2019-05-23T20:43:16.110Z,21.20
2019-05-23T20:45:44.444Z,11.40
2019-05-23T20:48:12.286Z,20.60
2019-05-23T20:50:40.413Z,12.00
2019-05-23T20:53:07.981Z,15.10
2019-05-23T20:55:35.267Z,14.23
2019-05-23T20:58:02.351Z,13.73
2019-05-23T21:00:48.055Z,13.80
2019-05-23T21:03:15.517Z,14.90
2019-05-23T21:05:43.711Z,21.87
2019-05-23T21:08:11.620Z,15.50
2019-05-23T21:10:47.178Z,20.10
2019-05-23T21:13:15.129Z,25.20
2019-05-23T21:15:42.849Z,23.70
2019-05-23T21:18:09.910Z,21.30
2019-05-23T21:20:37.257Z,19.53
2019-05-23T21:23:04.309Z,18.80
2019-05-23T21:25:32.345Z,17.77
2019-05-23T21:28:03.049Z,17.13
2019-05-23T21:30:30.857Z,18.40
2019-05-23T21:32:58.563Z,20.63
2019-05-23T21:35:25.610Z,18.20
2019-05-23T21:37:52.671Z,22.00
2019-05-23T21:40:42.847Z,15.60
2019-05-23T21:43:10.324Z,16.53
2019-05-23T21:45:37.389Z,21.60
2019-05-23T21:48:04.945Z,19.23
2019-05-23T21:50:32.137Z,15.27
2019-05-23T21:52:59.987Z,16.83
2019-05-23T21:55:34.838Z,15.87
2019-05-23T21:58:03.279Z,17.73
2019-05-23T22:01:07.707Z,16.23
2019-05-23T22:03:37.265Z,16.37
2019-05-23T22:06:08.566Z,17.20
2019-05-23T22:08:35.739Z,20.27
2019-05-23T22:11:02.847Z,18.70
2019-05-23T22:13:30.238Z,20.13
2019-05-23T22:15:58.210Z,17.53
2019-05-23T22:18:25.758Z,16.80
2019-05-23T22:20:52.792Z,16.53
2019-05-23T22:23:20.717Z,15.60
2019-05-23T22:25:49.079Z,16.43
2019-05-23T22:28:16.347Z,17.73
2019-05-23T22:30:43.868Z,16.93
2019-05-23T22:33:12.185Z,15.00
2019-05-23T22:35:39.304Z,16.60
2019-05-23T22:38:07.127Z,15.30
2019-05-23T22:40:38.451Z,17.30
2019-05-23T22:43:18.660Z,16.20
2019-05-23T22:45:34.357Z,15.17
2019-05-23T22:48:02.706Z,18.40
2019-05-23T22:50:29.754Z,16.80
2019-05-23T22:52:57.668Z,19.30
2019-05-23T22:55:25.175Z,16.23
2019-05-23T22:57:52.569Z,15.93
2019-05-23T23:00:28.000Z,15.57
2019-05-23T23:02:55.331Z,20.70
2019-05-23T23:05:22.516Z,17.13
2019-05-23T23:07:49.555Z,15.77
2019-05-23T23:10:17.146Z,15.37
2019-05-23T23:12:44.668Z,19.77
2019-05-23T23:15:12.193Z,18.57
2019-05-23T23:17:39.911Z,16.87
2019-05-23T23:20:07.762Z,18.27
2019-05-23T23:22:35.156Z,16.53
2019-05-23T23:25:02.576Z,22.93
2019-05-23T23:27:30.766Z,20.63
2019-05-23T23:29:57.762Z,18.07
2019-05-23T23:32:25.247Z,22.63
2019-05-23T23:34:52.473Z,19.50
2019-05-23T23:37:19.800Z,20.30
2019-05-23T23:39:47.642Z,18.20
2019-05-23T23:42:14.652Z,17.97
2019-05-23T23:44:41.331Z,17.50
2019-05-23T23:47:26.987Z,17.97
2019-05-23T23:50:12.301Z,18.83
2019-05-23T23:52:57.706Z,20.30
2019-05-23T23:55:43.244Z,21.40
2019-05-23T23:58:10.318Z,18.37
